Ifestos I — SV4139 — position and weather

sailwx.info

Track history (hours):
 
Tides and Currents Weather Stations Pressure Air Temp Water Temp Dewpoint Dewpoint Depression Visibility Wind Speed Wind Dir Waves Ship Positions

Ifestos I

Last reported at 2017-Feb-24 03:33 UTC. Time now 2017-Feb-24 03:49 UTC.
Position N 37°57' E 023°37'.

Length 30 m.

Type: Tug. MMSI: 237070500.

Date/timePositionNaut miles runAvg speedWind from/ knotsBaromVisibWave heightAir tempDewpointWater temp
2017-Feb-24 03:33N 37°57' E 023°37'0 0.0
2017-Feb-24 02:33N 37°57' E 023°37'1 1.0
2017-Feb-24 01:33N 37°57' E 023°35'1 1.0
2017-Feb-24 00:33N 37°57' E 023°37'0 0.4
2017-Feb-23 23:33N 37°57' E 023°36'0 0.4
2017-Feb-23 22:33N 37°57' E 023°37'0 0.0
2017-Feb-23 21:33N 37°57' E 023°37'0 0.0
2017-Feb-23 20:33N 37°57' E 023°37'0 0.0
2017-Feb-23 19:33N 37°57' E 023°37'0 0.0
2017-Feb-23 18:33N 37°57' E 023°37'0 0.0
2017-Feb-23 17:33N 37°57' E 023°37'0 0.0
2017-Feb-23 16:33N 37°57' E 023°37'0 0.0
2017-Feb-23 15:33N 37°57' E 023°37'0 0.0
2017-Feb-23 14:33N 37°57' E 023°37'1 1.1
2017-Feb-23 13:33N 37°57' E 023°35'1 1.1
2017-Feb-23 12:33N 37°57' E 023°37'0 0.0
2017-Feb-22 23:33N 37°57' E 023°37'0 0.0
2017-Feb-22 22:33N 37°57' E 023°37'0 0.0
2017-Feb-22 21:33N 37°57' E 023°37'0 0.0
2017-Feb-22 20:33N 37°57' E 023°37'0 0.3
2017-Feb-22 19:33N 37°57' E 023°36'0 0.3
2017-Feb-22 18:33N 37°57' E 023°37'0 0.0
2017-Feb-22 17:33N 37°57' E 023°37'0 0.5
2017-Feb-22 16:33N 37°57' E 023°36'0 0.4
2017-Feb-22 15:33N 37°57' E 023°37'0 0.0
2017-Feb-22 14:33N 37°57' E 023°37'0 0.0
2017-Feb-22 13:33N 37°57' E 023°37'0 0.2
2017-Feb-22 12:33N 37°58' E 023°36'0 0.0
2017-Feb-21 23:18N 37°57' E 023°37'0 0.0
2017-Feb-21 22:33N 37°57' E 023°37'0 0.0
2017-Feb-21 21:33N 37°57' E 023°37'1 0.8
2017-Feb-21 20:33N 37°57' E 023°36'1 0.8
2017-Feb-21 19:33N 37°57' E 023°37'7 7.0
2017-Feb-21 18:34N 38°00' E 023°29'5 5.1
2017-Feb-21 17:33N 37°58' E 023°23'0 0.2
2017-Feb-21 16:34N 37°58' E 023°23'2 2.0
2017-Feb-21 15:33N 37°59' E 023°25'7 7.4
2017-Feb-21 14:33N 37°57' E 023°34'2 1.7
2017-Feb-21 13:33N 37°57' E 023°36'1 0.5
2017-Feb-21 12:34N 37°57' E 023°36'1 0.5
2017-Feb-21 11:34N 37°57' E 023°36'0 0.0
2017-Feb-21 03:33N 37°57' E 023°36'0 0.0
2017-Feb-21 02:33N 37°57' E 023°36'0 0.0
2017-Feb-21 01:33N 37°57' E 023°36'0 0.3
2017-Feb-21 00:33N 37°58' E 023°36'4 4.5
2017-Feb-20 23:33N 38°00' E 023°32'7 6.7
2017-Feb-20 22:33N 37°58' E 023°24'0 0.2
2017-Feb-20 21:34N 37°57' E 023°24'1 1.0
2017-Feb-20 20:34N 37°57' E 023°23'4 3.6
2017-Feb-20 19:33N 37°60' E 023°26'8 8.2
2017-Feb-20 18:33N 37°57' E 023°36'1 0.8
2017-Feb-20 17:33N 37°57' E 023°37'1 1.4
2017-Feb-20 16:33N 37°56' E 023°36'1 1.4
2017-Feb-20 15:33N 37°57' E 023°37'0 0.0
2017-Feb-20 14:33N 37°57' E 023°37'0 0.0
2017-Feb-20 13:33N 37°57' E 023°37'2 1.9
2017-Feb-20 12:33N 37°56' E 023°36'2 2.0
2017-Feb-20 11:33N 37°57' E 023°37'0 0.0
2017-Feb-20 10:33N 37°57' E 023°37'0 0.0
2017-Feb-20 09:33N 37°57' E 023°37'  
2017-Feb-17 14:25N 37°57' E 023°37'0 0.0
2017-Feb-17 13:34N 37°57' E 023°37'0 0.0
2017-Feb-17 12:34N 37°57' E 023°37'0 0.0
2017-Feb-17 11:34N 37°57' E 023°37'2 1.6
2017-Feb-17 10:34N 37°57' E 023°35'0 0.4
2017-Feb-17 09:33N 37°57' E 023°34'2 2.0
2017-Feb-17 08:34N 37°57' E 023°37'0 0.0
2017-Feb-17 07:34N 37°57' E 023°37'0 0.0
2017-Feb-17 06:33N 37°57' E 023°37'0 0.2
2017-Feb-17 05:34N 37°57' E 023°36'0 0.4
2017-Feb-17 04:34N 37°57' E 023°36'1 0.1
2017-Feb-16 23:33N 37°57' E 023°37'0 0.0
2017-Feb-16 22:33N 37°57' E 023°37'0 0.0
2017-Feb-16 21:33N 37°57' E 023°37'0 0.0
2017-Feb-16 20:33N 37°57' E 023°37'4 4.2
2017-Feb-16 19:33N 38°00' E 023°33'2 2.4
2017-Feb-16 18:33N 38°02' E 023°31'0 0.3
2017-Feb-16 17:33N 38°02' E 023°30'0 0.0
2017-Feb-16 16:33N 38°02' E 023°30'0 0.0
2017-Feb-16 15:33N 38°02' E 023°30'0 0.0
2017-Feb-16 14:33N 38°02' E 023°30'0 0.0
2017-Feb-16 13:33N 38°02' E 023°30'0 0.0
2017-Feb-16 12:33N 38°02' E 023°30'0 0.0
2017-Feb-16 11:33N 38°02' E 023°30'0 0.0
2017-Feb-16 10:33N 38°02' E 023°30'0 0.0
2017-Feb-16 09:33N 38°02' E 023°30'0 0.0
2017-Feb-16 08:33N 38°02' E 023°30'0 0.0
2017-Feb-16 07:33N 38°02' E 023°30'0 0.0
2017-Feb-16 06:33N 38°02' E 023°30'0 0.0
2017-Feb-16 05:33N 38°02' E 023°30'0 0.0
2017-Feb-16 04:33N 38°02' E 023°30'0 0.0
2017-Feb-16 03:33N 38°02' E 023°30'0 0.0
2017-Feb-16 02:33N 38°02' E 023°30'0 0.0
2017-Feb-16 01:33N 38°02' E 023°30'0 0.0
2017-Feb-16 00:33N 38°02' E 023°30'0 0.0
2017-Feb-15 23:33N 38°02' E 023°30'0 0.0
2017-Feb-15 22:33N 38°02' E 023°30'0 0.0
2017-Feb-15 21:33N 38°02' E 023°30'0 0.0
2017-Feb-15 20:33N 38°02' E 023°30'0 0.0
2017-Feb-15 19:33N 38°02' E 023°30'0 0.0
2017-Feb-15 18:33N 38°02' E 023°30'0 0.0
2017-Feb-15 17:33N 38°02' E 023°30'0 0.0
2017-Feb-15 16:33N 38°02' E 023°30'0 0.2
2017-Feb-15 15:33N 38°02' E 023°31'0 0.3
2017-Feb-15 14:33N 38°02' E 023°31'0 0.0
2017-Feb-15 13:33N 38°02' E 023°31'0 0.0
2017-Feb-15 12:33N 38°02' E 023°31'0 0.0
2017-Feb-15 11:33N 38°02' E 023°31'0 0.0
2017-Feb-15 10:33N 38°02' E 023°31'0 0.0
2017-Feb-15 09:33N 38°02' E 023°31'1 0.8
2017-Feb-15 08:33N 38°01' E 023°31'3 3.3
2017-Feb-15 07:33N 37°58' E 023°33'3 3.1
2017-Feb-15 06:33N 37°57' E 023°37'0 0.0
2017-Feb-15 05:33N 37°57' E 023°37'1 0.7
2017-Feb-15 04:33N 37°57' E 023°36'1 0.1
2017-Feb-14 20:07N 37°57' E 023°37'0 0.0
2017-Feb-14 19:33N 37°57' E 023°37'0 0.0
2017-Feb-14 18:33N 37°57' E 023°37'0 0.0
2017-Feb-14 17:33N 37°57' E 023°37'0 0.4
2017-Feb-14 16:33N 37°57' E 023°36'6 5.6
2017-Feb-14 15:33N 38°02' E 023°32'0 0.0
2017-Feb-14 14:33N 38°02' E 023°32'7 6.7
2017-Feb-14 13:33N 37°58' E 023°26'1 1.2
2017-Feb-14 12:33N 37°58' E 023°24'2 1.7
2017-Feb-14 11:33N 37°60' E 023°25'6 6.5
2017-Feb-14 10:33N 37°58' E 023°33'0 0.5
2017-Feb-14 09:33N 37°57' E 023°33'0 0.0
2017-Feb-14 08:33N 37°57' E 023°33'3 2.1
2017-Feb-14 07:14N 37°57' E 023°37'0 0.0
2017-Feb-14 06:22N 37°57' E 023°37'1 0.9
2017-Feb-14 05:33N 37°57' E 023°36'1 0.6
2017-Feb-14 04:21N 37°57' E 023°37'  
Track history (hours):
 
Tides and Currents Weather Stations Pressure Air Temp Water Temp Dewpoint Dewpoint Depression Visibility Wind Speed Wind Dir Waves Ship Positions

Ifestos I

Last reported at 2017-Feb-24 03:33 UTC. Time now 2017-Feb-24 03:49 UTC.
Position N 37°57' E 023°37'.

Length 30 m.

Type: Tug. MMSI: 237070500.

Date/timePositionNaut miles runAvg speedWind from/ knotsBaromVisibWave heightAir tempDewpointWater temp
2017-Feb-24 03:33N 37°57' E 023°37'0 0.0
2017-Feb-24 02:33N 37°57' E 023°37'1 1.0
2017-Feb-24 01:33N 37°57' E 023°35'1 1.0
2017-Feb-24 00:33N 37°57' E 023°37'0 0.4
2017-Feb-23 23:33N 37°57' E 023°36'0 0.4
2017-Feb-23 22:33N 37°57' E 023°37'0 0.0
2017-Feb-23 21:33N 37°57' E 023°37'0 0.0
2017-Feb-23 20:33N 37°57' E 023°37'0 0.0
2017-Feb-23 19:33N 37°57' E 023°37'0 0.0
2017-Feb-23 18:33N 37°57' E 023°37'0 0.0
2017-Feb-23 17:33N 37°57' E 023°37'0 0.0
2017-Feb-23 16:33N 37°57' E 023°37'0 0.0
2017-Feb-23 15:33N 37°57' E 023°37'0 0.0
2017-Feb-23 14:33N 37°57' E 023°37'1 1.1
2017-Feb-23 13:33N 37°57' E 023°35'1 1.1
2017-Feb-23 12:33N 37°57' E 023°37'0 0.0
2017-Feb-22 23:33N 37°57' E 023°37'0 0.0
2017-Feb-22 22:33N 37°57' E 023°37'0 0.0
2017-Feb-22 21:33N 37°57' E 023°37'0 0.0
2017-Feb-22 20:33N 37°57' E 023°37'0 0.3
2017-Feb-22 19:33N 37°57' E 023°36'0 0.3
2017-Feb-22 18:33N 37°57' E 023°37'0 0.0
2017-Feb-22 17:33N 37°57' E 023°37'0 0.5
2017-Feb-22 16:33N 37°57' E 023°36'0 0.4
2017-Feb-22 15:33N 37°57' E 023°37'0 0.0
2017-Feb-22 14:33N 37°57' E 023°37'0 0.0
2017-Feb-22 13:33N 37°57' E 023°37'0 0.2
2017-Feb-22 12:33N 37°58' E 023°36'0 0.0
2017-Feb-21 23:18N 37°57' E 023°37'0 0.0
2017-Feb-21 22:33N 37°57' E 023°37'0 0.0
2017-Feb-21 21:33N 37°57' E 023°37'1 0.8
2017-Feb-21 20:33N 37°57' E 023°36'1 0.8
2017-Feb-21 19:33N 37°57' E 023°37'7 7.0
2017-Feb-21 18:34N 38°00' E 023°29'5 5.1
2017-Feb-21 17:33N 37°58' E 023°23'0 0.2
2017-Feb-21 16:34N 37°58' E 023°23'2 2.0
2017-Feb-21 15:33N 37°59' E 023°25'7 7.4
2017-Feb-21 14:33N 37°57' E 023°34'2 1.7
2017-Feb-21 13:33N 37°57' E 023°36'1 0.5
2017-Feb-21 12:34N 37°57' E 023°36'1 0.5
2017-Feb-21 11:34N 37°57' E 023°36'0 0.0
2017-Feb-21 03:33N 37°57' E 023°36'0 0.0
2017-Feb-21 02:33N 37°57' E 023°36'0 0.0
2017-Feb-21 01:33N 37°57' E 023°36'0 0.3
2017-Feb-21 00:33N 37°58' E 023°36'4 4.5
2017-Feb-20 23:33N 38°00' E 023°32'7 6.7
2017-Feb-20 22:33N 37°58' E 023°24'0 0.2
2017-Feb-20 21:34N 37°57' E 023°24'1 1.0
2017-Feb-20 20:34N 37°57' E 023°23'4 3.6
2017-Feb-20 19:33N 37°60' E 023°26'8 8.2
2017-Feb-20 18:33N 37°57' E 023°36'1 0.8
2017-Feb-20 17:33N 37°57' E 023°37'1 1.4
2017-Feb-20 16:33N 37°56' E 023°36'1 1.4
2017-Feb-20 15:33N 37°57' E 023°37'0 0.0
2017-Feb-20 14:33N 37°57' E 023°37'0 0.0
2017-Feb-20 13:33N 37°57' E 023°37'2 1.9
2017-Feb-20 12:33N 37°56' E 023°36'2 2.0
2017-Feb-20 11:33N 37°57' E 023°37'0 0.0
2017-Feb-20 10:33N 37°57' E 023°37'0 0.0
2017-Feb-20 09:33N 37°57' E 023°37'  
2017-Feb-17 14:25N 37°57' E 023°37'0 0.0
2017-Feb-17 13:34N 37°57' E 023°37'0 0.0
2017-Feb-17 12:34N 37°57' E 023°37'0 0.0
2017-Feb-17 11:34N 37°57' E 023°37'2 1.6
2017-Feb-17 10:34N 37°57' E 023°35'0 0.4
2017-Feb-17 09:33N 37°57' E 023°34'2 2.0
2017-Feb-17 08:34N 37°57' E 023°37'0 0.0
2017-Feb-17 07:34N 37°57' E 023°37'0 0.0
2017-Feb-17 06:33N 37°57' E 023°37'0 0.2
2017-Feb-17 05:34N 37°57' E 023°36'0 0.4
2017-Feb-17 04:34N 37°57' E 023°36'1 0.1
2017-Feb-16 23:33N 37°57' E 023°37'0 0.0
2017-Feb-16 22:33N 37°57' E 023°37'0 0.0
2017-Feb-16 21:33N 37°57' E 023°37'0 0.0
2017-Feb-16 20:33N 37°57' E 023°37'4 4.2
2017-Feb-16 19:33N 38°00' E 023°33'2 2.4
2017-Feb-16 18:33N 38°02' E 023°31'0 0.3
2017-Feb-16 17:33N 38°02' E 023°30'0 0.0
2017-Feb-16 16:33N 38°02' E 023°30'0 0.0
2017-Feb-16 15:33N 38°02' E 023°30'0 0.0
2017-Feb-16 14:33N 38°02' E 023°30'0 0.0
2017-Feb-16 13:33N 38°02' E 023°30'0 0.0
2017-Feb-16 12:33N 38°02' E 023°30'0 0.0
2017-Feb-16 11:33N 38°02' E 023°30'0 0.0
2017-Feb-16 10:33N 38°02' E 023°30'0 0.0
2017-Feb-16 09:33N 38°02' E 023°30'0 0.0
2017-Feb-16 08:33N 38°02' E 023°30'0 0.0
2017-Feb-16 07:33N 38°02' E 023°30'0 0.0
2017-Feb-16 06:33N 38°02' E 023°30'0 0.0
2017-Feb-16 05:33N 38°02' E 023°30'0 0.0
2017-Feb-16 04:33N 38°02' E 023°30'0 0.0
2017-Feb-16 03:33N 38°02' E 023°30'0 0.0
2017-Feb-16 02:33N 38°02' E 023°30'0 0.0
2017-Feb-16 01:33N 38°02' E 023°30'0 0.0
2017-Feb-16 00:33N 38°02' E 023°30'0 0.0
2017-Feb-15 23:33N 38°02' E 023°30'0 0.0
2017-Feb-15 22:33N 38°02' E 023°30'0 0.0
2017-Feb-15 21:33N 38°02' E 023°30'0 0.0
2017-Feb-15 20:33N 38°02' E 023°30'0 0.0
2017-Feb-15 19:33N 38°02' E 023°30'0 0.0
2017-Feb-15 18:33N 38°02' E 023°30'0 0.0
2017-Feb-15 17:33N 38°02' E 023°30'0 0.0
2017-Feb-15 16:33N 38°02' E 023°30'0 0.2
2017-Feb-15 15:33N 38°02' E 023°31'0 0.3
2017-Feb-15 14:33N 38°02' E 023°31'0 0.0
2017-Feb-15 13:33N 38°02' E 023°31'0 0.0
2017-Feb-15 12:33N 38°02' E 023°31'0 0.0
2017-Feb-15 11:33N 38°02' E 023°31'0 0.0
2017-Feb-15 10:33N 38°02' E 023°31'0 0.0
2017-Feb-15 09:33N 38°02' E 023°31'1 0.8
2017-Feb-15 08:33N 38°01' E 023°31'3 3.3
2017-Feb-15 07:33N 37°58' E 023°33'3 3.1
2017-Feb-15 06:33N 37°57' E 023°37'0 0.0
2017-Feb-15 05:33N 37°57' E 023°37'1 0.7
2017-Feb-15 04:33N 37°57' E 023°36'1 0.1
2017-Feb-14 20:07N 37°57' E 023°37'0 0.0
2017-Feb-14 19:33N 37°57' E 023°37'0 0.0
2017-Feb-14 18:33N 37°57' E 023°37'0 0.0
2017-Feb-14 17:33N 37°57' E 023°37'0 0.4
2017-Feb-14 16:33N 37°57' E 023°36'6 5.6
2017-Feb-14 15:33N 38°02' E 023°32'0 0.0
2017-Feb-14 14:33N 38°02' E 023°32'7 6.7
2017-Feb-14 13:33N 37°58' E 023°26'1 1.2
2017-Feb-14 12:33N 37°58' E 023°24'2 1.7
2017-Feb-14 11:33N 37°60' E 023°25'6 6.5
2017-Feb-14 10:33N 37°58' E 023°33'0 0.5
2017-Feb-14 09:33N 37°57' E 023°33'0 0.0
2017-Feb-14 08:33N 37°57' E 023°33'3 2.1
2017-Feb-14 07:14N 37°57' E 023°37'0 0.0
2017-Feb-14 06:22N 37°57' E 023°37'1 0.9
2017-Feb-14 05:33N 37°57' E 023°36'1 0.6
2017-Feb-14 04:21N 37°57' E 023°37'  

Dump ship's entire track history